sensor_id;sensor_type;location;lat;lon;timestamp;P1;durP1;ratioP1;P2;durP2;ratioP2
57947;SDS011;43754;56.992;24.292;2023-07-20T00:01:09;5.53;;;1.60;;
57947;SDS011;43754;56.992;24.292;2023-07-20T00:03:41;4.97;;;1.88;;
57947;SDS011;43754;56.992;24.292;2023-07-20T00:06:13;8.65;;;1.75;;
57947;SDS011;43754;56.992;24.292;2023-07-20T00:08:47;7.63;;;1.80;;
57947;SDS011;43754;56.992;24.292;2023-07-20T00:11:19;6.97;;;1.77;;
57947;SDS011;43754;56.992;24.292;2023-07-20T00:13:51;8.90;;;1.85;;
57947;SDS011;43754;56.992;24.292;2023-07-20T00:16:23;5.88;;;1.67;;
57947;SDS011;43754;56.992;24.292;2023-07-20T00:18:56;7.82;;;1.95;;
57947;SDS011;43754;56.992;24.292;2023-07-20T00:21:28;6.97;;;1.63;;
57947;SDS011;43754;56.992;24.292;2023-07-20T00:24:02;7.63;;;1.50;;
57947;SDS011;43754;56.992;24.292;2023-07-20T00:26:34;9.10;;;1.77;;
57947;SDS011;43754;56.992;24.292;2023-07-20T00:29:06;7.85;;;1.90;;
57947;SDS011;43754;56.992;24.292;2023-07-20T00:31:38;7.00;;;1.50;;
57947;SDS011;43754;56.992;24.292;2023-07-20T00:34:10;14.75;;;2.25;;
57947;SDS011;43754;56.992;24.292;2023-07-20T00:36:44;6.75;;;1.65;;
57947;SDS011;43754;56.992;24.292;2023-07-20T00:39:17;6.75;;;1.75;;
57947;SDS011;43754;56.992;24.292;2023-07-20T00:41:49;4.50;;;1.52;;
57947;SDS011;43754;56.992;24.292;2023-07-20T00:44:22;11.30;;;2.15;;
57947;SDS011;43754;56.992;24.292;2023-07-20T00:46:54;9.60;;;2.15;;
57947;SDS011;43754;56.992;24.292;2023-07-20T00:49:26;10.88;;;2.00;;
57947;SDS011;43754;56.992;24.292;2023-07-20T00:51:59;8.30;;;1.70;;
57947;SDS011;43754;56.992;24.292;2023-07-20T00:54:34;7.43;;;1.90;;
57947;SDS011;43754;56.992;24.292;2023-07-20T00:57:06;4.78;;;1.55;;
57947;SDS011;43754;56.992;24.292;2023-07-20T00:59:39;9.18;;;1.88;;
57947;SDS011;43754;56.992;24.292;2023-07-20T01:02:11;6.15;;;2.05;;
57947;SDS011;43754;56.992;24.292;2023-07-20T01:04:44;5.93;;;1.90;;
57947;SDS011;43754;56.992;24.292;2023-07-20T01:07:17;6.95;;;1.60;;
57947;SDS011;43754;56.992;24.292;2023-07-20T01:09:59;5.55;;;1.60;;
57947;SDS011;43754;56.992;24.292;2023-07-20T01:12:35;6.25;;;1.63;;
57947;SDS011;43754;56.992;24.292;2023-07-20T01:15:13;10.48;;;1.90;;
57947;SDS011;43754;56.992;24.292;2023-07-20T01:17:45;8.43;;;2.13;;
57947;SDS011;43754;56.992;24.292;2023-07-20T01:20:19;5.28;;;1.52;;
57947;SDS011;43754;56.992;24.292;2023-07-20T01:26:05;7.38;;;2.00;;
57947;SDS011;43754;56.992;24.292;2023-07-20T01:28:48;4.85;;;2.03;;
57947;SDS011;43754;56.992;24.292;2023-07-20T01:31:44;5.57;;;1.40;;
57947;SDS011;43754;56.992;24.292;2023-07-20T01:34:18;9.18;;;1.80;;
57947;SDS011;43754;56.992;24.292;2023-07-20T01:36:53;10.13;;;2.03;;
57947;SDS011;43754;56.992;24.292;2023-07-20T01:39:27;8.85;;;2.20;;
57947;SDS011;43754;56.992;24.292;2023-07-20T01:42:00;6.85;;;1.65;;
57947;SDS011;43754;56.992;24.292;2023-07-20T01:44:32;7.53;;;1.92;;
57947;SDS011;43754;56.992;24.292;2023-07-20T01:47:06;8.15;;;1.70;;
57947;SDS011;43754;56.992;24.292;2023-07-20T01:49:38;6.32;;;1.40;;
57947;SDS011;43754;56.992;24.292;2023-07-20T01:52:10;8.45;;;1.88;;
57947;SDS011;43754;56.992;24.292;2023-07-20T01:54:42;5.65;;;1.88;;
57947;SDS011;43754;56.992;24.292;2023-07-20T01:57:14;11.13;;;1.98;;
57947;SDS011;43754;56.992;24.292;2023-07-20T01:59:47;8.88;;;2.30;;
57947;SDS011;43754;56.992;24.292;2023-07-20T02:02:20;6.57;;;1.40;;
57947;SDS011;43754;56.992;24.292;2023-07-20T02:04:54;5.63;;;1.77;;
57947;SDS011;43754;56.992;24.292;2023-07-20T02:07:26;8.52;;;1.77;;
57947;SDS011;43754;56.992;24.292;2023-07-20T02:13:27;9.23;;;1.70;;
57947;SDS011;43754;56.992;24.292;2023-07-20T02:15:59;7.60;;;1.83;;
57947;SDS011;43754;56.992;24.292;2023-07-20T02:18:33;7.75;;;2.60;;
57947;SDS011;43754;56.992;24.292;2023-07-20T02:21:05;12.68;;;1.92;;
57947;SDS011;43754;56.992;24.292;2023-07-20T02:23:37;7.05;;;1.55;;
57947;SDS011;43754;56.992;24.292;2023-07-20T02:26:09;5.75;;;1.77;;
57947;SDS011;43754;56.992;24.292;2023-07-20T02:28:41;8.40;;;2.42;;
57947;SDS011;43754;56.992;24.292;2023-07-20T02:31:13;7.93;;;2.28;;
57947;SDS011;43754;56.992;24.292;2023-07-20T02:33:47;4.50;;;1.83;;
57947;SDS011;43754;56.992;24.292;2023-07-20T02:36:19;6.13;;;1.50;;
57947;SDS011;43754;56.992;24.292;2023-07-20T02:38:52;5.78;;;1.63;;
57947;SDS011;43754;56.992;24.292;2023-07-20T02:41:24;8.48;;;1.75;;
57947;SDS011;43754;56.992;24.292;2023-07-20T02:43:56;7.13;;;2.10;;
57947;SDS011;43754;56.992;24.292;2023-07-20T02:46:29;4.30;;;1.48;;
57947;SDS011;43754;56.992;24.292;2023-07-20T02:49:05;6.97;;;2.10;;
57947;SDS011;43754;56.992;24.292;2023-07-20T02:51:37;5.28;;;1.80;;
57947;SDS011;43754;56.992;24.292;2023-07-20T02:54:10;9.13;;;1.83;;
57947;SDS011;43754;56.992;24.292;2023-07-20T02:56:42;7.38;;;1.80;;
57947;SDS011;43754;56.992;24.292;2023-07-20T02:59:14;9.15;;;1.95;;
57947;SDS011;43754;56.992;24.292;2023-07-20T03:01:46;8.25;;;2.13;;
57947;SDS011;43754;56.992;24.292;2023-07-20T03:04:19;8.77;;;2.20;;
57947;SDS011;43754;56.992;24.292;2023-07-20T03:06:52;6.30;;;1.40;;
57947;SDS011;43754;56.992;24.292;2023-07-20T03:09:24;7.07;;;1.80;;
57947;SDS011;43754;56.992;24.292;2023-07-20T03:11:56;7.35;;;1.63;;
57947;SDS011;43754;56.992;24.292;2023-07-20T03:14:28;4.40;;;1.48;;
57947;SDS011;43754;56.992;24.292;2023-07-20T03:17:00;5.78;;;1.92;;
57947;SDS011;43754;56.992;24.292;2023-07-20T03:19:36;6.80;;;1.63;;
57947;SDS011;43754;56.992;24.292;2023-07-20T03:22:08;5.75;;;1.77;;
57947;SDS011;43754;56.992;24.292;2023-07-20T03:24:40;6.05;;;1.85;;
57947;SDS011;43754;56.992;24.292;2023-07-20T03:27:12;9.27;;;1.73;;
57947;SDS011;43754;56.992;24.292;2023-07-20T03:29:44;6.65;;;1.95;;
57947;SDS011;43754;56.992;24.292;2023-07-20T03:32:16;7.85;;;1.73;;
57947;SDS011;43754;56.992;24.292;2023-07-20T03:34:50;8.18;;;2.22;;
57947;SDS011;43754;56.992;24.292;2023-07-20T03:37:22;5.57;;;1.52;;
57947;SDS011;43754;56.992;24.292;2023-07-20T03:39:54;7.47;;;1.58;;
57947;SDS011;43754;56.992;24.292;2023-07-20T03:42:26;5.20;;;1.52;;
57947;SDS011;43754;56.992;24.292;2023-07-20T03:44:58;7.03;;;1.60;;
57947;SDS011;43754;56.992;24.292;2023-07-20T03:47:30;6.40;;;2.15;;
57947;SDS011;43754;56.992;24.292;2023-07-20T03:50:04;5.80;;;1.55;;
57947;SDS011;43754;56.992;24.292;2023-07-20T03:52:37;4.05;;;1.50;;
57947;SDS011;43754;56.992;24.292;2023-07-20T03:55:09;5.32;;;1.63;;
57947;SDS011;43754;56.992;24.292;2023-07-20T03:57:42;6.97;;;1.70;;
57947;SDS011;43754;56.992;24.292;2023-07-20T04:00:15;5.80;;;1.80;;
57947;SDS011;43754;56.992;24.292;2023-07-20T04:02:47;8.07;;;1.77;;
57947;SDS011;43754;56.992;24.292;2023-07-20T04:05:21;6.60;;;1.88;;
57947;SDS011;43754;56.992;24.292;2023-07-20T04:07:53;7.63;;;1.73;;
57947;SDS011;43754;56.992;24.292;2023-07-20T04:10:25;5.90;;;2.10;;
57947;SDS011;43754;56.992;24.292;2023-07-20T04:12:57;7.07;;;1.77;;
57947;SDS011;43754;56.992;24.292;2023-07-20T04:15:30;7.25;;;1.65;;
57947;SDS011;43754;56.992;24.292;2023-07-20T04:18:02;7.50;;;1.95;;
57947;SDS011;43754;56.992;24.292;2023-07-20T04:20:36;8.27;;;2.40;;
57947;SDS011;43754;56.992;24.292;2023-07-20T04:23:08;5.65;;;1.98;;
57947;SDS011;43754;56.992;24.292;2023-07-20T04:25:41;8.10;;;1.80;;
57947;SDS011;43754;56.992;24.292;2023-07-20T04:28:15;10.52;;;2.05;;
57947;SDS011;43754;56.992;24.292;2023-07-20T04:30:52;5.80;;;1.70;;
57947;SDS011;43754;56.992;24.292;2023-07-20T04:33:25;8.40;;;1.73;;
57947;SDS011;43754;56.992;24.292;2023-07-20T04:36:02;7.70;;;2.08;;
57947;SDS011;43754;56.992;24.292;2023-07-20T04:38:37;7.80;;;1.90;;
57947;SDS011;43754;56.992;24.292;2023-07-20T04:41:29;5.65;;;1.92;;
57947;SDS011;43754;56.992;24.292;2023-07-20T04:44:04;5.00;;;1.88;;
57947;SDS011;43754;56.992;24.292;2023-07-20T04:46:37;4.72;;;1.80;;
57947;SDS011;43754;56.992;24.292;2023-07-20T04:49:09;5.70;;;1.95;;
57947;SDS011;43754;56.992;24.292;2023-07-20T04:51:46;10.52;;;2.25;;
57947;SDS011;43754;56.992;24.292;2023-07-20T04:54:18;10.10;;;2.10;;
57947;SDS011;43754;56.992;24.292;2023-07-20T04:56:51;5.93;;;1.90;;
57947;SDS011;43754;56.992;24.292;2023-07-20T04:59:24;8.30;;;1.77;;
57947;SDS011;43754;56.992;24.292;2023-07-20T05:01:57;7.47;;;2.30;;
57947;SDS011;43754;56.992;24.292;2023-07-20T05:04:29;7.25;;;1.90;;
57947;SDS011;43754;56.992;24.292;2023-07-20T05:07:11;4.93;;;1.80;;
57947;SDS011;43754;56.992;24.292;2023-07-20T05:09:44;7.07;;;2.10;;
57947;SDS011;43754;56.992;24.292;2023-07-20T05:12:16;4.97;;;1.75;;
57947;SDS011;43754;56.992;24.292;2023-07-20T05:14:51;5.93;;;2.05;;
57947;SDS011;43754;56.992;24.292;2023-07-20T05:17:23;7.43;;;1.85;;
57947;SDS011;43754;56.992;24.292;2023-07-20T05:19:56;4.90;;;1.35;;
57947;SDS011;43754;56.992;24.292;2023-07-20T05:22:30;6.47;;;1.75;;
57947;SDS011;43754;56.992;24.292;2023-07-20T05:25:02;5.40;;;1.42;;
57947;SDS011;43754;56.992;24.292;2023-07-20T05:27:35;7.07;;;1.73;;
57947;SDS011;43754;56.992;24.292;2023-07-20T05:30:08;5.90;;;1.58;;
57947;SDS011;43754;56.992;24.292;2023-07-20T05:32:41;3.90;;;1.50;;
57947;SDS011;43754;56.992;24.292;2023-07-20T05:35:13;6.28;;;1.48;;
57947;SDS011;43754;56.992;24.292;2023-07-20T05:37:48;5.20;;;1.65;;
57947;SDS011;43754;56.992;24.292;2023-07-20T05:40:20;3.88;;;0.90;;
57947;SDS011;43754;56.992;24.292;2023-07-20T05:42:52;4.82;;;1.40;;
57947;SDS011;43754;56.992;24.292;2023-07-20T05:48:19;11.45;;;1.70;;
57947;SDS011;43754;56.992;24.292;2023-07-20T05:50:51;8.60;;;1.60;;
57947;SDS011;43754;56.992;24.292;2023-07-20T05:53:25;9.63;;;1.85;;
57947;SDS011;43754;56.992;24.292;2023-07-20T05:55:57;6.32;;;1.25;;
57947;SDS011;43754;56.992;24.292;2023-07-20T05:58:29;7.68;;;1.45;;
57947;SDS011;43754;56.992;24.292;2023-07-20T06:01:01;7.85;;;1.35;;
57947;SDS011;43754;56.992;24.292;2023-07-20T06:03:37;5.45;;;1.67;;
57947;SDS011;43754;56.992;24.292;2023-07-20T06:06:09;3.35;;;1.17;;
57947;SDS011;43754;56.992;24.292;2023-07-20T06:08:45;10.18;;;2.25;;
57947;SDS011;43754;56.992;24.292;2023-07-20T06:11:17;4.88;;;1.40;;
57947;SDS011;43754;56.992;24.292;2023-07-20T06:13:49;5.53;;;1.25;;
57947;SDS011;43754;56.992;24.292;2023-07-20T06:16:22;5.15;;;1.70;;
57947;SDS011;43754;56.992;24.292;2023-07-20T06:18:54;12.02;;;1.95;;
57947;SDS011;43754;56.992;24.292;2023-07-20T06:21:27;5.20;;;1.48;;
57947;SDS011;43754;56.992;24.292;2023-07-20T06:24:00;8.55;;;1.33;;
57947;SDS011;43754;56.992;24.292;2023-07-20T06:26:32;4.05;;;1.00;;
57947;SDS011;43754;56.992;24.292;2023-07-20T06:29:10;8.80;;;1.38;;
57947;SDS011;43754;56.992;24.292;2023-07-20T06:31:42;10.93;;;1.30;;
57947;SDS011;43754;56.992;24.292;2023-07-20T06:34:14;4.85;;;1.35;;
57947;SDS011;43754;56.992;24.292;2023-07-20T06:36:48;6.60;;;1.60;;
57947;SDS011;43754;56.992;24.292;2023-07-20T06:39:22;5.07;;;1.15;;
57947;SDS011;43754;56.992;24.292;2023-07-20T06:41:57;3.38;;;1.30;;
57947;SDS011;43754;56.992;24.292;2023-07-20T06:44:29;2.83;;;1.25;;
57947;SDS011;43754;56.992;24.292;2023-07-20T06:47:01;1.65;;;1.05;;
57947;SDS011;43754;56.992;24.292;2023-07-20T06:49:34;4.97;;;1.15;;
57947;SDS011;43754;56.992;24.292;2023-07-20T06:52:06;4.95;;;1.10;;
57947;SDS011;43754;56.992;24.292;2023-07-20T06:54:40;5.25;;;1.10;;
57947;SDS011;43754;56.992;24.292;2023-07-20T06:57:15;4.95;;;0.93;;
57947;SDS011;43754;56.992;24.292;2023-07-20T06:59:50;5.82;;;1.20;;
57947;SDS011;43754;56.992;24.292;2023-07-20T07:02:22;5.13;;;1.50;;
57947;SDS011;43754;56.992;24.292;2023-07-20T07:04:55;6.18;;;1.30;;
57947;SDS011;43754;56.992;24.292;2023-07-20T07:07:47;4.80;;;1.52;;
57947;SDS011;43754;56.992;24.292;2023-07-20T07:10:22;3.58;;;1.30;;
57947;SDS011;43754;56.992;24.292;2023-07-20T07:12:54;4.22;;;1.30;;
57947;SDS011;43754;56.992;24.292;2023-07-20T07:15:26;12.70;;;1.65;;
57947;SDS011;43754;56.992;24.292;2023-07-20T07:17:59;5.18;;;1.90;;
57947;SDS011;43754;56.992;24.292;2023-07-20T07:20:31;6.43;;;1.20;;
57947;SDS011;43754;56.992;24.292;2023-07-20T07:23:03;4.68;;;1.10;;
57947;SDS011;43754;56.992;24.292;2023-07-20T07:25:37;6.15;;;1.33;;
57947;SDS011;43754;56.992;24.292;2023-07-20T07:28:09;3.00;;;1.10;;
57947;SDS011;43754;56.992;24.292;2023-07-20T07:30:41;4.00;;;1.10;;
57947;SDS011;43754;56.992;24.292;2023-07-20T07:33:13;6.63;;;1.60;;
57947;SDS011;43754;56.992;24.292;2023-07-20T07:35:45;3.47;;;1.33;;
57947;SDS011;43754;56.992;24.292;2023-07-20T07:38:17;2.55;;;0.95;;
57947;SDS011;43754;56.992;24.292;2023-07-20T07:40:57;7.60;;;1.50;;
57947;SDS011;43754;56.992;24.292;2023-07-20T07:43:29;2.35;;;1.15;;
57947;SDS011;43754;56.992;24.292;2023-07-20T07:46:01;5.10;;;1.42;;
57947;SDS011;43754;56.992;24.292;2023-07-20T07:48:33;6.05;;;0.90;;
57947;SDS011;43754;56.992;24.292;2023-07-20T07:51:05;3.13;;;1.08;;
57947;SDS011;43754;56.992;24.292;2023-07-20T07:53:38;9.07;;;1.30;;
57947;SDS011;43754;56.992;24.292;2023-07-20T07:56:12;4.88;;;1.30;;
57947;SDS011;43754;56.992;24.292;2023-07-20T07:58:44;6.00;;;1.23;;
57947;SDS011;43754;56.992;24.292;2023-07-20T08:01:16;5.25;;;1.02;;
57947;SDS011;43754;56.992;24.292;2023-07-20T08:03:48;3.75;;;1.20;;
57947;SDS011;43754;56.992;24.292;2023-07-20T08:06:20;3.30;;;1.95;;
57947;SDS011;43754;56.992;24.292;2023-07-20T08:08:53;4.28;;;2.08;;
57947;SDS011;43754;56.992;24.292;2023-07-20T08:11:26;1.58;;;1.20;;
57947;SDS011;43754;56.992;24.292;2023-07-20T08:13:58;4.95;;;1.40;;
57947;SDS011;43754;56.992;24.292;2023-07-20T08:16:31;6.32;;;1.70;;
57947;SDS011;43754;56.992;24.292;2023-07-20T08:19:03;1.65;;;0.80;;
57947;SDS011;43754;56.992;24.292;2023-07-20T08:21:35;2.20;;;0.80;;
57947;SDS011;43754;56.992;24.292;2023-07-20T08:24:07;2.75;;;1.20;;
57947;SDS011;43754;56.992;24.292;2023-07-20T08:26:41;8.55;;;1.23;;
57947;SDS011;43754;56.992;24.292;2023-07-20T08:29:13;4.65;;;0.85;;
57947;SDS011;43754;56.992;24.292;2023-07-20T08:31:45;3.10;;;1.17;;
57947;SDS011;43754;56.992;24.292;2023-07-20T08:34:18;0.73;;;0.63;;
57947;SDS011;43754;56.992;24.292;2023-07-20T08:37:01;6.28;;;1.00;;
57947;SDS011;43754;56.992;24.292;2023-07-20T08:39:33;4.55;;;0.80;;
57947;SDS011;43754;56.992;24.292;2023-07-20T08:42:08;2.28;;;1.00;;
57947;SDS011;43754;56.992;24.292;2023-07-20T08:44:42;3.50;;;1.23;;
57947;SDS011;43754;56.992;24.292;2023-07-20T08:47:16;2.45;;;0.80;;
57947;SDS011;43754;56.992;24.292;2023-07-20T08:49:49;6.13;;;1.00;;
57947;SDS011;43754;56.992;24.292;2023-07-20T08:52:21;1.52;;;0.90;;
57947;SDS011;43754;56.992;24.292;2023-07-20T08:54:53;1.10;;;0.80;;
57947;SDS011;43754;56.992;24.292;2023-07-20T08:57:27;2.22;;;0.82;;
57947;SDS011;43754;56.992;24.292;2023-07-20T08:59:59;3.03;;;0.65;;
57947;SDS011;43754;56.992;24.292;2023-07-20T09:02:36;2.22;;;0.93;;
57947;SDS011;43754;56.992;24.292;2023-07-20T09:05:12;3.25;;;1.10;;
57947;SDS011;43754;56.992;24.292;2023-07-20T09:07:46;5.80;;;1.20;;
57947;SDS011;43754;56.992;24.292;2023-07-20T09:10:19;1.98;;;1.00;;
57947;SDS011;43754;56.992;24.292;2023-07-20T09:12:54;3.70;;;1.30;;
57947;SDS011;43754;56.992;24.292;2023-07-20T09:15:28;3.83;;;1.10;;
57947;SDS011;43754;56.992;24.292;2023-07-20T09:18:01;2.15;;;0.90;;
57947;SDS011;43754;56.992;24.292;2023-07-20T09:20:35;2.42;;;0.80;;
57947;SDS011;43754;56.992;24.292;2023-07-20T09:23:08;2.50;;;1.02;;
57947;SDS011;43754;56.992;24.292;2023-07-20T09:25:40;3.13;;;1.50;;
57947;SDS011;43754;56.992;24.292;2023-07-20T09:28:15;4.47;;;1.10;;
57947;SDS011;43754;56.992;24.292;2023-07-20T09:30:47;3.38;;;1.25;;
57947;SDS011;43754;56.992;24.292;2023-07-20T09:33:24;5.78;;;2.05;;
57947;SDS011;43754;56.992;24.292;2023-07-20T09:36:01;2.92;;;1.02;;
57947;SDS011;43754;56.992;24.292;2023-07-20T09:38:54;7.30;;;2.22;;
57947;SDS011;43754;56.992;24.292;2023-07-20T09:41:29;6.25;;;2.58;;
57947;SDS011;43754;56.992;24.292;2023-07-20T09:44:06;46.08;;;6.05;;
57947;SDS011;43754;56.992;24.292;2023-07-20T09:46:45;7.45;;;1.40;;
57947;SDS011;43754;56.992;24.292;2023-07-20T09:49:20;2.42;;;1.02;;
57947;SDS011;43754;56.992;24.292;2023-07-20T09:51:55;4.78;;;1.10;;
57947;SDS011;43754;56.992;24.292;2023-07-20T09:54:29;5.03;;;1.30;;
57947;SDS011;43754;56.992;24.292;2023-07-20T09:57:02;8.50;;;1.30;;
57947;SDS011;43754;56.992;24.292;2023-07-20T09:59:36;2.38;;;0.90;;
57947;SDS011;43754;56.992;24.292;2023-07-20T10:02:10;3.80;;;0.82;;
57947;SDS011;43754;56.992;24.292;2023-07-20T10:04:52;3.05;;;0.80;;
57947;SDS011;43754;56.992;24.292;2023-07-20T10:07:25;5.45;;;1.30;;
57947;SDS011;43754;56.992;24.292;2023-07-20T10:09:59;5.18;;;1.40;;
57947;SDS011;43754;56.992;24.292;2023-07-20T10:12:34;4.38;;;1.00;;
57947;SDS011;43754;56.992;24.292;2023-07-20T10:15:10;1.73;;;0.70;;
57947;SDS011;43754;56.992;24.292;2023-07-20T10:17:47;4.75;;;1.15;;
57947;SDS011;43754;56.992;24.292;2023-07-20T10:20:31;3.50;;;0.73;;
57947;SDS011;43754;56.992;24.292;2023-07-20T10:23:07;4.07;;;1.00;;
57947;SDS011;43754;56.992;24.292;2023-07-20T10:25:39;3.55;;;0.70;;
57947;SDS011;43754;56.992;24.292;2023-07-20T10:28:14;1.92;;;0.90;;
57947;SDS011;43754;56.992;24.292;2023-07-20T10:30:48;1.60;;;0.65;;
57947;SDS011;43754;56.992;24.292;2023-07-20T10:33:20;4.88;;;0.93;;
57947;SDS011;43754;56.992;24.292;2023-07-20T10:35:53;5.05;;;1.30;;
57947;SDS011;43754;56.992;24.292;2023-07-20T10:38:39;7.13;;;0.73;;
57947;SDS011;43754;56.992;24.292;2023-07-20T10:41:18;9.18;;;0.93;;
57947;SDS011;43754;56.992;24.292;2023-07-20T10:43:55;1.98;;;0.77;;
57947;SDS011;43754;56.992;24.292;2023-07-20T10:46:34;2.30;;;0.80;;
57947;SDS011;43754;56.992;24.292;2023-07-20T10:49:15;2.17;;;0.75;;
57947;SDS011;43754;56.992;24.292;2023-07-20T10:51:48;1.60;;;0.57;;
57947;SDS011;43754;56.992;24.292;2023-07-20T10:54:33;2.00;;;0.80;;
57947;SDS011;43754;56.992;24.292;2023-07-20T10:57:22;2.33;;;0.57;;
57947;SDS011;43754;56.992;24.292;2023-07-20T11:00:10;1.88;;;0.77;;
57947;SDS011;43754;56.992;24.292;2023-07-20T11:02:47;1.48;;;0.73;;
57947;SDS011;43754;56.992;24.292;2023-07-20T11:05:35;1.58;;;0.75;;
57947;SDS011;43754;56.992;24.292;2023-07-20T11:08:12;1.60;;;0.70;;
57947;SDS011;43754;56.992;24.292;2023-07-20T11:10:44;1.10;;;0.55;;
57947;SDS011;43754;56.992;24.292;2023-07-20T11:13:20;1.27;;;0.57;;
57947;SDS011;43754;56.992;24.292;2023-07-20T11:16:03;3.25;;;0.70;;
57947;SDS011;43754;56.992;24.292;2023-07-20T11:18:37;2.08;;;0.80;;
57947;SDS011;43754;56.992;24.292;2023-07-20T11:21:12;0.75;;;0.55;;
57947;SDS011;43754;56.992;24.292;2023-07-20T11:23:44;2.03;;;0.60;;
57947;SDS011;43754;56.992;24.292;2023-07-20T11:26:18;2.60;;;1.02;;
57947;SDS011;43754;56.992;24.292;2023-07-20T11:28:51;2.50;;;0.80;;
57947;SDS011;43754;56.992;24.292;2023-07-20T11:31:23;1.35;;;1.00;;
57947;SDS011;43754;56.992;24.292;2023-07-20T11:33:57;3.53;;;0.80;;
57947;SDS011;43754;56.992;24.292;2023-07-20T11:36:43;2.72;;;1.10;;
57947;SDS011;43754;56.992;24.292;2023-07-20T11:39:21;2.63;;;0.90;;
57947;SDS011;43754;56.992;24.292;2023-07-20T11:41:54;4.30;;;0.90;;
57947;SDS011;43754;56.992;24.292;2023-07-20T11:44:28;1.20;;;0.90;;
57947;SDS011;43754;56.992;24.292;2023-07-20T11:47:02;1.08;;;0.80;;
57947;SDS011;43754;56.992;24.292;2023-07-20T11:49:37;2.60;;;0.88;;
57947;SDS011;43754;56.992;24.292;2023-07-20T11:52:13;5.20;;;1.00;;
57947;SDS011;43754;56.992;24.292;2023-07-20T11:54:47;5.07;;;1.00;;
57947;SDS011;43754;56.992;24.292;2023-07-20T11:57:20;2.95;;;1.10;;
57947;SDS011;43754;56.992;24.292;2023-07-20T11:59:52;2.95;;;0.90;;
57947;SDS011;43754;56.992;24.292;2023-07-20T12:02:29;3.97;;;1.00;;
57947;SDS011;43754;56.992;24.292;2023-07-20T12:05:03;2.97;;;0.90;;
57947;SDS011;43754;56.992;24.292;2023-07-20T12:07:36;3.70;;;1.40;;
57947;SDS011;43754;56.992;24.292;2023-07-20T12:10:09;2.35;;;0.93;;
57947;SDS011;43754;56.992;24.292;2023-07-20T12:12:43;2.38;;;0.80;;
57947;SDS011;43754;56.992;24.292;2023-07-20T12:15:16;1.20;;;0.85;;
57947;SDS011;43754;56.992;24.292;2023-07-20T12:17:52;2.95;;;1.83;;
57947;SDS011;43754;56.992;24.292;2023-07-20T12:20:28;5.30;;;2.10;;
57947;SDS011;43754;56.992;24.292;2023-07-20T12:23:01;3.85;;;1.65;;
57947;SDS011;43754;56.992;24.292;2023-07-20T12:25:37;2.47;;;1.20;;
57947;SDS011;43754;56.992;24.292;2023-07-20T12:28:11;2.30;;;1.10;;
57947;SDS011;43754;56.992;24.292;2023-07-20T12:30:45;4.03;;;1.63;;
57947;SDS011;43754;56.992;24.292;2023-07-20T12:33:18;6.68;;;1.75;;
57947;SDS011;43754;56.992;24.292;2023-07-20T12:35:51;2.72;;;1.30;;
57947;SDS011;43754;56.992;24.292;2023-07-20T12:38:27;2.55;;;1.40;;
57947;SDS011;43754;56.992;24.292;2023-07-20T12:41:00;4.53;;;1.20;;
57947;SDS011;43754;56.992;24.292;2023-07-20T12:43:32;1.70;;;1.20;;
57947;SDS011;43754;56.992;24.292;2023-07-20T12:46:05;3.03;;;1.38;;
57947;SDS011;43754;56.992;24.292;2023-07-20T12:48:37;3.22;;;1.33;;
57947;SDS011;43754;56.992;24.292;2023-07-20T12:51:11;3.38;;;1.30;;
57947;SDS011;43754;56.992;24.292;2023-07-20T12:53:43;2.97;;;1.02;;
57947;SDS011;43754;56.992;24.292;2023-07-20T12:56:16;1.27;;;1.15;;
57947;SDS011;43754;56.992;24.292;2023-07-20T12:58:50;2.60;;;0.90;;
57947;SDS011;43754;56.992;24.292;2023-07-20T13:01:23;2.30;;;1.10;;
57947;SDS011;43754;56.992;24.292;2023-07-20T13:03:55;2.00;;;1.10;;
57947;SDS011;43754;56.992;24.292;2023-07-20T13:06:32;3.35;;;0.80;;
57947;SDS011;43754;56.992;24.292;2023-07-20T13:09:07;1.73;;;0.82;;
57947;SDS011;43754;56.992;24.292;2023-07-20T13:11:39;3.83;;;1.30;;
57947;SDS011;43754;56.992;24.292;2023-07-20T13:14:11;3.60;;;1.00;;
57947;SDS011;43754;56.992;24.292;2023-07-20T13:16:43;1.35;;;0.93;;
57947;SDS011;43754;56.992;24.292;2023-07-20T13:19:15;2.15;;;0.80;;
57947;SDS011;43754;56.992;24.292;2023-07-20T13:21:49;3.38;;;1.23;;
57947;SDS011;43754;56.992;24.292;2023-07-20T13:24:21;1.70;;;0.88;;
57947;SDS011;43754;56.992;24.292;2023-07-20T13:26:53;3.25;;;1.45;;
57947;SDS011;43754;56.992;24.292;2023-07-20T13:29:25;5.50;;;1.30;;
57947;SDS011;43754;56.992;24.292;2023-07-20T13:31:57;3.58;;;1.13;;
57947;SDS011;43754;56.992;24.292;2023-07-20T13:34:29;2.35;;;1.00;;
57947;SDS011;43754;56.992;24.292;2023-07-20T13:37:04;3.28;;;1.25;;
57947;SDS011;43754;56.992;24.292;2023-07-20T13:39:37;8.50;;;1.55;;
57947;SDS011;43754;56.992;24.292;2023-07-20T13:42:09;3.15;;;1.10;;
57947;SDS011;43754;56.992;24.292;2023-07-20T13:44:43;2.53;;;0.90;;
57947;SDS011;43754;56.992;24.292;2023-07-20T13:47:15;4.28;;;1.27;;
57947;SDS011;43754;56.992;24.292;2023-07-20T13:49:50;3.00;;;1.17;;
57947;SDS011;43754;56.992;24.292;2023-07-20T13:52:36;4.90;;;1.10;;
57947;SDS011;43754;56.992;24.292;2023-07-20T13:55:11;5.75;;;1.20;;
57947;SDS011;43754;56.992;24.292;2023-07-20T13:57:43;3.53;;;1.35;;
57947;SDS011;43754;56.992;24.292;2023-07-20T14:00:15;1.88;;;1.10;;
57947;SDS011;43754;56.992;24.292;2023-07-20T14:02:51;3.80;;;1.20;;
57947;SDS011;43754;56.992;24.292;2023-07-20T14:05:26;3.42;;;0.80;;
57947;SDS011;43754;56.992;24.292;2023-07-20T14:08:02;2.35;;;0.95;;
57947;SDS011;43754;56.992;24.292;2023-07-20T14:10:34;1.95;;;1.00;;
57947;SDS011;43754;56.992;24.292;2023-07-20T14:13:26;2.53;;;1.02;;
57947;SDS011;43754;56.992;24.292;2023-07-20T14:16:16;3.00;;;0.90;;
57947;SDS011;43754;56.992;24.292;2023-07-20T14:18:50;4.95;;;0.98;;
57947;SDS011;43754;56.992;24.292;2023-07-20T14:21:22;2.17;;;0.90;;
57947;SDS011;43754;56.992;24.292;2023-07-20T14:23:57;5.63;;;1.20;;
57947;SDS011;43754;56.992;24.292;2023-07-20T14:26:32;1.52;;;0.75;;
57947;SDS011;43754;56.992;24.292;2023-07-20T14:29:04;2.90;;;1.52;;
57947;SDS011;43754;56.992;24.292;2023-07-20T14:31:36;2.85;;;1.50;;
57947;SDS011;43754;56.992;24.292;2023-07-20T14:34:09;3.20;;;1.40;;
57947;SDS011;43754;56.992;24.292;2023-07-20T14:36:41;1.75;;;1.05;;
57947;SDS011;43754;56.992;24.292;2023-07-20T14:39:14;2.95;;;1.30;;
57947;SDS011;43754;56.992;24.292;2023-07-20T14:41:46;5.07;;;1.20;;
57947;SDS011;43754;56.992;24.292;2023-07-20T14:44:19;3.83;;;1.30;;
57947;SDS011;43754;56.992;24.292;2023-07-20T14:46:52;3.28;;;1.20;;
57947;SDS011;43754;56.992;24.292;2023-07-20T14:49:44;2.17;;;1.08;;
57947;SDS011;43754;56.992;24.292;2023-07-20T14:52:16;2.35;;;0.93;;
57947;SDS011;43754;56.992;24.292;2023-07-20T14:54:50;2.30;;;1.00;;
57947;SDS011;43754;56.992;24.292;2023-07-20T14:57:22;2.38;;;1.00;;
57947;SDS011;43754;56.992;24.292;2023-07-20T14:59:55;2.22;;;1.35;;
57947;SDS011;43754;56.992;24.292;2023-07-20T15:02:27;6.47;;;1.20;;
57947;SDS011;43754;56.992;24.292;2023-07-20T15:04:59;4.80;;;1.20;;
57947;SDS011;43754;56.992;24.292;2023-07-20T15:07:31;6.15;;;1.52;;
57947;SDS011;43754;56.992;24.292;2023-07-20T15:10:06;2.35;;;0.98;;
57947;SDS011;43754;56.992;24.292;2023-07-20T15:12:38;5.43;;;1.10;;
57947;SDS011;43754;56.992;24.292;2023-07-20T15:15:11;4.10;;;1.02;;
57947;SDS011;43754;56.992;24.292;2023-07-20T15:17:45;4.53;;;1.23;;
57947;SDS011;43754;56.992;24.292;2023-07-20T15:20:17;6.05;;;1.10;;
57947;SDS011;43754;56.992;24.292;2023-07-20T15:22:49;2.40;;;0.90;;